createdAt,value
2022-09-21T00:01:25.784Z,15.10
2022-09-21T00:04:02.456Z,15.00
2022-09-21T00:06:33.294Z,14.90
2022-09-21T00:09:01.277Z,14.90
2022-09-21T00:11:30.344Z,14.90
2022-09-21T00:14:04.217Z,14.80
2022-09-21T00:16:32.210Z,14.80
2022-09-21T00:19:00.492Z,14.70
2022-09-21T00:21:28.389Z,14.70
2022-09-21T00:23:55.911Z,15.00
2022-09-21T00:26:26.290Z,14.60
2022-09-21T00:28:59.276Z,14.60
2022-09-21T00:31:28.066Z,14.50
2022-09-21T00:33:55.528Z,14.50
2022-09-21T00:36:25.127Z,14.70
2022-09-21T00:38:57.776Z,14.40
2022-09-21T00:41:26.874Z,14.40
2022-09-21T00:44:16.467Z,14.40
2022-09-21T00:46:46.241Z,14.30
2022-09-21T00:49:14.906Z,14.20
2022-09-21T00:51:42.707Z,14.20
2022-09-21T00:54:18.301Z,14.20
2022-09-21T00:56:46.213Z,14.20
2022-09-21T00:59:16.231Z,14.10
2022-09-21T01:01:44.857Z,14.10
2022-09-21T01:04:13.781Z,14.10
2022-09-21T01:06:41.758Z,14.00
2022-09-21T01:09:09.780Z,14.00
2022-09-21T01:12:12.734Z,14.20
2022-09-21T01:14:46.254Z,13.60
2022-09-21T01:17:33.584Z,13.90
2022-09-21T01:20:20.126Z,14.10
2022-09-21T01:22:56.828Z,13.90
2022-09-21T01:25:41.879Z,13.80
2022-09-21T01:28:21.462Z,13.80
2022-09-21T01:30:52.433Z,13.80
2022-09-21T01:33:36.112Z,13.80
2022-09-21T01:36:11.989Z,13.70
2022-09-21T01:38:45.502Z,13.70
2022-09-21T01:41:17.206Z,13.70
2022-09-21T01:43:50.907Z,13.90
2022-09-21T01:46:21.183Z,13.60
2022-09-21T01:48:54.851Z,13.60
2022-09-21T01:51:25.980Z,13.50
2022-09-21T01:54:02.640Z,13.60
2022-09-21T01:56:44.965Z,13.50
2022-09-21T01:59:40.375Z,13.40
2022-09-21T02:02:14.417Z,13.30
2022-09-21T02:04:41.927Z,13.30
2022-09-21T02:07:10.009Z,13.30
2022-09-21T02:09:38.214Z,13.30
2022-09-21T02:12:05.658Z,13.30
2022-09-21T02:14:36.297Z,13.30
2022-09-21T02:17:50.189Z,13.10
2022-09-21T02:20:24.021Z,13.10
2022-09-21T02:23:18.978Z,13.10
2022-09-21T02:25:54.900Z,13.10
2022-09-21T02:28:40.559Z,13.10
2022-09-21T02:31:19.332Z,13.10
2022-09-21T02:34:05.572Z,13.10
2022-09-21T02:36:46.416Z,13.10
2022-09-21T02:39:19.870Z,13.10
2022-09-21T02:42:07.645Z,13.10
2022-09-21T02:44:45.673Z,13.10
2022-09-21T02:47:26.102Z,13.10
2022-09-21T02:49:58.758Z,13.00
2022-09-21T02:52:28.247Z,13.00
2022-09-21T02:54:57.105Z,12.90
2022-09-21T02:57:25.694Z,12.90
2022-09-21T02:59:53.274Z,12.90
2022-09-21T03:02:20.615Z,12.90
2022-09-21T03:04:49.914Z,12.80
2022-09-21T03:07:17.928Z,12.80
2022-09-21T03:09:45.493Z,12.80
2022-09-21T03:12:13.769Z,12.70
2022-09-21T03:14:41.108Z,12.70
2022-09-21T03:17:09.416Z,13.00
2022-09-21T03:19:36.719Z,12.70
2022-09-21T03:22:04.415Z,12.60
2022-09-21T03:24:46.888Z,12.60
2022-09-21T03:27:20.255Z,12.60
2022-09-21T03:29:47.728Z,12.50
2022-09-21T03:32:15.283Z,12.40
2022-09-21T03:34:43.014Z,12.40
2022-09-21T03:37:11.298Z,12.50
2022-09-21T03:39:38.702Z,12.40
2022-09-21T03:42:06.218Z,12.40
2022-09-21T03:44:33.781Z,12.40
2022-09-21T03:47:01.213Z,12.40
2022-09-21T03:49:29.179Z,12.40
2022-09-21T03:51:57.027Z,12.40
2022-09-21T03:54:25.507Z,12.40
2022-09-21T03:56:52.904Z,12.60
2022-09-21T03:59:20.550Z,12.30
2022-09-21T04:01:48.004Z,12.30
2022-09-21T04:04:16.588Z,12.30
2022-09-21T04:06:46.153Z,12.60
2022-09-21T04:09:13.690Z,12.60
2022-09-21T04:11:41.179Z,12.30
2022-09-21T04:14:08.713Z,12.30
2022-09-21T04:16:36.391Z,12.50
2022-09-21T04:19:03.952Z,12.30
2022-09-21T04:21:31.307Z,12.30
2022-09-21T04:23:58.955Z,12.50
2022-09-21T04:26:30.099Z,12.30
2022-09-21T04:28:57.958Z,12.20
2022-09-21T04:31:29.331Z,12.20
2022-09-21T04:33:57.753Z,12.10
2022-09-21T04:36:28.044Z,12.10
2022-09-21T04:38:55.370Z,12.10
2022-09-21T04:41:22.709Z,12.00
2022-09-21T04:43:50.058Z,12.00
2022-09-21T04:46:20.114Z,12.00
2022-09-21T04:48:48.200Z,11.90
2022-09-21T04:51:17.361Z,11.90
2022-09-21T04:53:45.781Z,11.90
2022-09-21T04:56:14.944Z,11.90
2022-09-21T04:58:42.601Z,11.90
2022-09-21T05:01:10.383Z,11.80
2022-09-21T05:03:38.295Z,11.80
2022-09-21T05:06:05.829Z,11.80
2022-09-21T05:08:52.040Z,11.70
2022-09-21T05:11:19.522Z,11.80
2022-09-21T05:13:47.662Z,11.70
2022-09-21T05:16:16.075Z,11.70
2022-09-21T05:18:44.109Z,11.70
2022-09-21T05:21:13.139Z,11.60
2022-09-21T05:23:40.752Z,11.60
2022-09-21T05:26:08.234Z,11.60
2022-09-21T05:28:39.835Z,11.50
2022-09-21T05:31:26.653Z,11.50
2022-09-21T05:34:25.921Z,11.60
2022-09-21T05:37:04.906Z,11.50
2022-09-21T05:39:32.945Z,11.50
2022-09-21T05:42:00.785Z,11.50
2022-09-21T05:44:28.488Z,11.50
2022-09-21T05:47:25.432Z,11.50
2022-09-21T05:50:16.829Z,11.50
2022-09-21T05:53:01.397Z,11.50
2022-09-21T05:55:49.774Z,11.50
2022-09-21T05:58:28.918Z,11.60
2022-09-21T06:01:19.506Z,11.70
2022-09-21T06:03:54.158Z,11.70
2022-09-21T06:06:26.818Z,11.70
2022-09-21T06:08:57.519Z,11.90
2022-09-21T06:11:25.047Z,12.00
2022-09-21T06:14:01.444Z,11.70
2022-09-21T06:16:41.439Z,12.00
2022-09-21T06:19:13.490Z,11.70
2022-09-21T06:21:40.819Z,11.80
2022-09-21T06:24:08.437Z,11.90
2022-09-21T06:26:35.722Z,11.90
2022-09-21T06:29:03.144Z,11.90
2022-09-21T06:31:30.579Z,11.90
2022-09-21T06:33:58.022Z,12.00
2022-09-21T06:36:25.704Z,11.70
2022-09-21T06:38:53.342Z,12.20
2022-09-21T06:41:31.580Z,12.30
2022-09-21T06:44:04.354Z,12.00
2022-09-21T06:46:50.895Z,12.10
2022-09-21T06:49:18.799Z,12.10
2022-09-21T06:51:48.198Z,12.10
2022-09-21T06:54:15.678Z,12.40
2022-09-21T06:56:43.325Z,12.30
2022-09-21T06:59:10.807Z,12.30
2022-09-21T07:01:38.431Z,12.30
2022-09-21T07:04:09.232Z,12.40
2022-09-21T07:06:36.827Z,12.40
2022-09-21T07:11:51.757Z,12.60
2022-09-21T07:14:19.411Z,12.80
2022-09-21T07:16:46.901Z,13.20
2022-09-21T07:19:14.562Z,13.50
2022-09-21T07:21:41.914Z,13.90
2022-09-21T07:24:12.177Z,14.00
2022-09-21T07:26:42.211Z,14.50
2022-09-21T07:29:09.774Z,14.60
2022-09-21T07:31:37.542Z,15.00
2022-09-21T07:34:05.036Z,15.60
2022-09-21T07:36:32.545Z,15.80
2022-09-21T07:39:00.469Z,16.40
2022-09-21T07:41:27.805Z,16.70
2022-09-21T07:43:55.432Z,17.20
2022-09-21T07:46:22.808Z,17.60
2022-09-21T07:48:54.675Z,18.40
2022-09-21T07:51:23.656Z,18.80
2022-09-21T07:53:59.088Z,19.10
2022-09-21T07:56:26.509Z,19.50
2022-09-21T07:59:05.884Z,20.00
2022-09-21T08:01:41.903Z,20.40
2022-09-21T08:04:10.891Z,21.10
2022-09-21T08:06:40.062Z,21.30
2022-09-21T08:09:08.547Z,21.50
2022-09-21T08:11:37.383Z,21.70
2022-09-21T08:14:05.284Z,22.10
2022-09-21T08:16:34.121Z,22.60
2022-09-21T08:19:03.019Z,22.80
2022-09-21T08:21:30.645Z,23.20
2022-09-21T08:23:58.112Z,23.80
2022-09-21T08:26:26.177Z,23.80
2022-09-21T08:28:55.307Z,24.40
2022-09-21T08:31:24.312Z,24.40
2022-09-21T08:33:52.785Z,24.60
2022-09-21T08:36:20.868Z,24.90
2022-09-21T08:38:48.334Z,25.10
2022-09-21T08:41:18.271Z,25.30
2022-09-21T08:43:51.758Z,25.40
2022-09-21T08:46:23.258Z,25.50
2022-09-21T08:49:09.692Z,25.80
2022-09-21T08:51:41.835Z,25.80
2022-09-21T08:54:27.251Z,26.30
2022-09-21T08:57:06.518Z,26.40
2022-09-21T08:59:34.437Z,26.90
2022-09-21T09:02:07.621Z,26.90
2022-09-21T09:05:13.306Z,27.30
2022-09-21T09:07:49.622Z,27.40
2022-09-21T09:10:29.078Z,27.70
2022-09-21T09:13:09.828Z,28.00
2022-09-21T09:15:54.910Z,28.30
2022-09-21T09:18:46.612Z,28.40
2022-09-21T09:21:30.453Z,28.60
2022-09-21T09:24:27.968Z,28.80
2022-09-21T09:27:17.576Z,29.00
2022-09-21T09:30:03.587Z,29.00
2022-09-21T09:32:57.803Z,29.10
2022-09-21T09:35:26.936Z,29.10
2022-09-21T09:38:23.333Z,29.20
2022-09-21T09:40:53.950Z,29.10
2022-09-21T09:43:53.227Z,29.10
2022-09-21T09:46:36.490Z,28.80
2022-09-21T09:49:35.270Z,28.30
2022-09-21T09:52:04.892Z,28.00
2022-09-21T09:54:35.507Z,27.80
2022-09-21T09:57:52.010Z,27.60
2022-09-21T10:00:22.897Z,26.90
2022-09-21T10:02:53.034Z,26.80
2022-09-21T10:05:22.126Z,26.30
2022-09-21T10:07:50.466Z,26.00
2022-09-21T10:10:32.970Z,25.50
2022-09-21T10:13:26.924Z,25.30
2022-09-21T10:16:00.417Z,24.90
2022-09-21T10:18:44.555Z,24.60
2022-09-21T10:21:23.361Z,24.30
2022-09-21T10:24:01.119Z,24.20
2022-09-21T10:26:47.261Z,23.90
2022-09-21T10:29:22.062Z,23.70
2022-09-21T10:32:01.332Z,23.60
2022-09-21T10:34:33.326Z,23.40
2022-09-21T10:37:22.312Z,23.20
2022-09-21T10:39:49.924Z,23.30
2022-09-21T10:42:19.453Z,23.10
2022-09-21T10:44:52.102Z,22.80
2022-09-21T10:47:23.900Z,22.90
2022-09-21T10:49:54.805Z,23.00
2022-09-21T10:52:25.439Z,22.60
2022-09-21T10:54:56.204Z,22.50
2022-09-21T10:57:26.029Z,22.40
2022-09-21T10:59:54.488Z,22.50
2022-09-21T11:02:33.090Z,22.50
2022-09-21T11:05:17.809Z,22.20
2022-09-21T11:07:51.276Z,22.10
2022-09-21T11:10:45.381Z,22.00
2022-09-21T11:13:38.992Z,21.90
2022-09-21T11:16:24.554Z,21.80
2022-09-21T11:19:20.182Z,22.00
2022-09-21T11:21:55.469Z,21.70
2022-09-21T11:24:48.403Z,21.70
2022-09-21T11:27:41.725Z,21.50
2022-09-21T11:30:09.402Z,21.50
2022-09-21T11:32:37.161Z,21.50
2022-09-21T11:35:47.418Z,21.40
2022-09-21T11:38:43.129Z,21.40
2022-09-21T11:41:36.799Z,21.40
2022-09-21T11:44:29.190Z,21.40
2022-09-21T11:47:05.899Z,21.30
2022-09-21T11:50:13.065Z,21.30
2022-09-21T11:53:02.518Z,21.20
2022-09-21T11:55:48.035Z,21.20
2022-09-21T11:58:32.748Z,21.20
2022-09-21T12:01:06.085Z,21.50
2022-09-21T12:03:55.191Z,21.20
2022-09-21T12:06:28.590Z,21.30
2022-09-21T12:09:18.390Z,21.40
2022-09-21T12:12:25.737Z,21.20
2022-09-21T12:15:05.632Z,21.30
2022-09-21T12:18:04.506Z,21.30
2022-09-21T12:20:35.086Z,21.30
2022-09-21T12:23:06.187Z,21.30
2022-09-21T12:25:44.866Z,21.30
2022-09-21T12:28:26.126Z,21.30
2022-09-21T12:31:01.015Z,21.30
2022-09-21T12:33:53.946Z,21.40
2022-09-21T12:36:29.191Z,21.30
2022-09-21T12:39:05.842Z,21.30
2022-09-21T12:41:46.551Z,21.30
2022-09-21T12:44:52.314Z,21.30
2022-09-21T12:47:30.953Z,21.70
2022-09-21T12:50:06.026Z,21.40
2022-09-21T12:52:34.210Z,21.40
2022-09-21T12:55:45.389Z,21.50
2022-09-21T12:58:29.962Z,21.50
2022-09-21T13:01:15.511Z,21.50
2022-09-21T13:03:58.688Z,21.60
2022-09-21T13:07:07.990Z,21.60
2022-09-21T13:09:41.796Z,21.50
2022-09-21T13:12:19.917Z,21.80
2022-09-21T13:15:02.743Z,21.50
2022-09-21T13:17:32.505Z,21.50
2022-09-21T13:20:07.359Z,21.50
2022-09-21T13:22:36.649Z,21.50
2022-09-21T13:25:24.612Z,21.40
2022-09-21T13:28:04.086Z,21.50
2022-09-21T13:31:09.934Z,21.70
2022-09-21T13:34:16.173Z,21.50
2022-09-21T13:36:43.793Z,21.50
2022-09-21T13:39:18.738Z,21.50
2022-09-21T13:42:03.575Z,21.50
2022-09-21T13:44:42.367Z,21.50
2022-09-21T13:47:14.213Z,21.60
2022-09-21T13:49:54.958Z,21.70
2022-09-21T13:52:52.075Z,21.50
2022-09-21T13:55:28.597Z,21.60
2022-09-21T13:57:57.648Z,21.50
2022-09-21T14:00:35.182Z,21.50
2022-09-21T14:03:24.324Z,21.50
2022-09-21T14:06:12.517Z,21.70
2022-09-21T14:08:49.415Z,21.30
2022-09-21T14:11:45.305Z,21.30
2022-09-21T14:14:24.791Z,21.30
2022-09-21T14:17:08.820Z,21.40
2022-09-21T14:19:41.250Z,21.40
2022-09-21T14:22:08.925Z,21.50
2022-09-21T14:24:42.064Z,21.70
2022-09-21T14:27:45.492Z,21.60
2022-09-21T14:30:30.855Z,21.50
2022-09-21T14:33:14.836Z,21.50
2022-09-21T14:36:07.863Z,21.70
2022-09-21T14:38:54.826Z,21.50
2022-09-21T14:41:28.119Z,21.70
2022-09-21T14:44:29.984Z,21.60
2022-09-21T14:47:25.416Z,21.60
2022-09-21T14:50:44.470Z,21.60
2022-09-21T14:57:02.588Z,21.50
2022-09-21T15:00:14.226Z,21.50
2022-09-21T15:02:44.473Z,21.60
2022-09-21T15:05:15.237Z,21.60
2022-09-21T15:08:36.724Z,21.40
2022-09-21T15:11:15.957Z,21.30
2022-09-21T15:14:17.888Z,21.30
2022-09-21T15:16:48.635Z,21.30
2022-09-21T15:19:27.107Z,21.40
2022-09-21T15:22:14.542Z,21.10
2022-09-21T15:24:51.124Z,21.10
2022-09-21T15:27:21.404Z,21.30
2022-09-21T15:29:53.703Z,21.10
2022-09-21T15:32:43.364Z,21.10
2022-09-21T15:35:27.494Z,21.00
2022-09-21T15:38:00.167Z,21.40
2022-09-21T15:40:30.466Z,21.30
2022-09-21T15:43:06.751Z,21.30
2022-09-21T15:45:57.278Z,21.10
2022-09-21T15:48:26.657Z,21.10
2022-09-21T15:50:58.091Z,21.00
2022-09-21T15:53:30.976Z,21.00
2022-09-21T15:56:00.933Z,21.00
2022-09-21T15:58:37.539Z,21.10
2022-09-21T16:01:11.379Z,21.10
2022-09-21T16:03:39.961Z,21.10
2022-09-21T16:06:41.488Z,21.10
2022-09-21T16:09:24.125Z,21.10
2022-09-21T16:11:55.057Z,21.40
2022-09-21T16:14:42.769Z,21.30
2022-09-21T16:17:13.029Z,21.20
2022-09-21T16:19:53.804Z,21.00
2022-09-21T16:22:40.006Z,21.00
2022-09-21T16:25:32.804Z,21.20
2022-09-21T16:28:20.715Z,21.00
2022-09-21T16:30:56.696Z,21.30
2022-09-21T16:33:47.435Z,21.10
2022-09-21T16:36:22.246Z,21.20
2022-09-21T16:38:53.463Z,21.20
2022-09-21T16:41:22.273Z,21.40
2022-09-21T16:43:51.107Z,21.20
2022-09-21T16:46:18.810Z,21.40
2022-09-21T16:48:55.630Z,21.20
2022-09-21T16:51:25.233Z,21.30
2022-09-21T16:53:54.848Z,21.10
2022-09-21T16:56:22.810Z,21.00
2022-09-21T16:58:50.156Z,21.20
2022-09-21T17:01:22.347Z,21.00
2022-09-21T17:03:49.678Z,21.00
2022-09-21T17:06:21.616Z,20.90
2022-09-21T17:08:49.816Z,20.80
2022-09-21T17:11:20.047Z,20.80
2022-09-21T17:13:51.446Z,20.90
2022-09-21T17:16:20.506Z,20.80
2022-09-21T17:18:48.858Z,20.80
2022-09-21T17:21:17.224Z,20.70
2022-09-21T17:23:45.310Z,20.70
2022-09-21T17:26:21.114Z,20.70
2022-09-21T17:28:48.470Z,20.90
2022-09-21T17:31:16.584Z,20.90
2022-09-21T17:33:45.477Z,20.50
2022-09-21T17:36:17.686Z,20.40
2022-09-21T17:38:45.562Z,20.40
2022-09-21T17:41:40.353Z,20.30
2022-09-21T17:44:16.187Z,20.30
2022-09-21T17:47:12.038Z,20.20
2022-09-21T17:49:39.653Z,20.20
2022-09-21T17:52:39.811Z,20.20
2022-09-21T17:55:10.587Z,20.20
2022-09-21T17:57:47.124Z,20.10
2022-09-21T18:00:21.248Z,20.10
2022-09-21T18:03:02.895Z,20.00
2022-09-21T18:05:34.318Z,20.00
2022-09-21T18:08:07.028Z,19.90
2022-09-21T18:10:36.234Z,19.80
2022-09-21T18:16:55.996Z,19.70
2022-09-21T18:19:59.905Z,19.70
2022-09-21T18:22:41.081Z,19.60
2022-09-21T18:25:16.236Z,19.50
2022-09-21T18:27:48.894Z,19.40
2022-09-21T18:30:17.742Z,19.40
2022-09-21T18:33:10.580Z,19.30
2022-09-21T18:36:00.446Z,19.20
2022-09-21T18:38:50.532Z,19.30
2022-09-21T18:42:14.016Z,19.00
2022-09-21T18:45:20.210Z,19.20
2022-09-21T18:48:13.199Z,18.60
2022-09-21T18:51:00.054Z,18.50
2022-09-21T18:54:04.037Z,18.90
2022-09-21T18:56:43.570Z,18.70
2022-09-21T18:59:38.627Z,18.40
2022-09-21T19:02:30.381Z,18.60
2022-09-21T19:05:09.156Z,18.50
2022-09-21T19:08:17.396Z,18.50
2022-09-21T19:14:15.898Z,18.10
2022-09-21T19:17:14.790Z,18.50
2022-09-21T19:20:41.862Z,18.20
2022-09-21T19:23:34.390Z,18.10
2022-09-21T19:26:12.103Z,18.00
2022-09-21T19:28:59.957Z,18.10
2022-09-21T19:31:27.653Z,17.80
2022-09-21T19:33:55.171Z,17.80
2022-09-21T19:36:24.117Z,17.70
2022-09-21T19:38:51.894Z,17.70
2022-09-21T19:41:25.008Z,17.60
2022-09-21T19:44:10.573Z,17.60
2022-09-21T19:47:06.471Z,17.50
2022-09-21T19:49:49.424Z,17.50
2022-09-21T19:52:19.112Z,17.40
2022-09-21T19:55:05.357Z,17.40
2022-09-21T19:57:52.790Z,17.30
2022-09-21T20:00:22.763Z,17.20
2022-09-21T20:02:51.799Z,17.10
2022-09-21T20:05:40.103Z,17.30
2022-09-21T20:08:18.137Z,17.20
2022-09-21T20:11:11.434Z,16.90
2022-09-21T20:13:53.417Z,16.90
2022-09-21T20:16:27.175Z,16.80
2022-09-21T20:19:24.978Z,16.90
2022-09-21T20:21:59.563Z,16.70
2022-09-21T20:24:43.750Z,16.70
2022-09-21T20:27:42.968Z,16.70
2022-09-21T20:30:13.464Z,16.60
2022-09-21T20:32:43.801Z,16.60
2022-09-21T20:35:16.956Z,16.50
2022-09-21T20:37:45.392Z,16.40
2022-09-21T20:40:14.008Z,16.40
2022-09-21T20:42:41.992Z,16.30
2022-09-21T20:45:11.254Z,16.30
2022-09-21T20:47:38.917Z,16.30
2022-09-21T20:50:11.492Z,16.20
2022-09-21T20:52:41.353Z,16.10
2022-09-21T20:55:17.345Z,16.10
2022-09-21T20:57:44.926Z,16.00
2022-09-21T21:00:15.353Z,15.90
2022-09-21T21:02:43.917Z,15.90
2022-09-21T21:05:11.433Z,15.90
2022-09-21T21:07:42.404Z,15.80
2022-09-21T21:10:13.351Z,15.80
2022-09-21T21:12:41.937Z,16.00
2022-09-21T21:15:11.271Z,15.90
2022-09-21T21:17:39.710Z,15.70
2022-09-21T21:20:08.904Z,15.60
2022-09-21T21:22:37.054Z,15.50
2022-09-21T21:25:05.044Z,15.40
2022-09-21T21:27:33.192Z,15.40
2022-09-21T21:30:01.153Z,15.40
2022-09-21T21:32:29.135Z,15.60
2022-09-21T21:34:56.595Z,15.30
2022-09-21T21:37:25.634Z,15.20
2022-09-21T21:39:53.815Z,15.20
2022-09-21T21:42:21.930Z,15.10
2022-09-21T21:44:52.193Z,15.10
2022-09-21T21:47:39.821Z,15.30
2022-09-21T21:50:07.799Z,15.20
2022-09-21T21:52:35.566Z,15.00
2022-09-21T21:55:04.014Z,14.90
2022-09-21T21:57:31.431Z,14.90
2022-09-21T21:59:58.836Z,15.10
2022-09-21T22:02:26.556Z,14.80
2022-09-21T22:04:54.007Z,14.80
2022-09-21T22:07:21.377Z,14.70
2022-09-21T22:09:49.051Z,14.70
2022-09-21T22:12:16.808Z,14.70
2022-09-21T22:14:46.527Z,14.60
2022-09-21T22:17:14.636Z,14.80
2022-09-21T22:19:42.977Z,14.50
2022-09-21T22:22:10.584Z,14.50
2022-09-21T22:24:38.396Z,14.70
2022-09-21T22:27:05.884Z,14.70
2022-09-21T22:29:33.308Z,14.50
2022-09-21T22:32:00.949Z,14.30
2022-09-21T22:34:28.514Z,14.40
2022-09-21T22:36:57.721Z,14.30
2022-09-21T22:39:25.421Z,14.40
2022-09-21T22:41:54.039Z,14.30
2022-09-21T22:44:21.420Z,14.30
2022-09-21T22:46:49.061Z,14.20
2022-09-21T22:49:16.652Z,14.20
2022-09-21T22:51:44.073Z,14.20
2022-09-21T22:54:11.466Z,14.10
2022-09-21T22:56:39.294Z,14.10
2022-09-21T22:59:06.751Z,14.10
2022-09-21T23:01:37.453Z,14.10
2022-09-21T23:04:10.800Z,14.00
2022-09-21T23:06:42.260Z,14.00
2022-09-21T23:09:14.564Z,13.90
2022-09-21T23:11:43.949Z,13.90
2022-09-21T23:14:12.856Z,13.90
2022-09-21T23:16:40.474Z,13.80
2022-09-21T23:19:15.338Z,13.80
2022-09-21T23:21:44.898Z,13.80
2022-09-21T23:24:12.944Z,13.80
2022-09-21T23:26:40.504Z,13.70
2022-09-21T23:29:13.409Z,13.70
2022-09-21T23:31:45.063Z,13.70
2022-09-21T23:34:14.491Z,13.70
2022-09-21T23:36:42.906Z,13.60
2022-09-21T23:39:12.338Z,13.60
2022-09-21T23:41:39.733Z,13.60
2022-09-21T23:44:07.380Z,13.60
2022-09-21T23:46:37.456Z,13.50
2022-09-21T23:49:05.681Z,13.50
2022-09-21T23:51:33.805Z,13.40
2022-09-21T23:54:01.775Z,13.40
2022-09-21T23:56:29.969Z,13.40
2022-09-21T23:58:58.578Z,13.40
